SILO ALERT LOG
| Silo ID | Alert Type | Alert Message | Silo Type | Points | Depth (mm) | Strength | Temperature (°C) | Humidity (%) | Height (mm) | Volume (㎥) | Weight (t) | Flag | Time |
|---|---|---|---|---|---|---|---|---|---|---|---|---|---|
| DJDJD04 | Humidity | 습도센서 측정값이 80% 초과 | 평 | 277 | 4201 | 4431 | 4.8 | 81.4 | 3478 | 421.49 | 266.466 | 11 | 2024-01-12 04:39:32.000 |
| DJSSD01 | Humidity | 습도센서 측정값이 80% 초과 | 평 | 795 | 2564 | 4652 | 6.3 | 83.1 | 5515 | 767.631 | 485.297 | 0 | 2024-01-12 04:39:32.000 |
| DJSSD09 | Temperature | 온도센서 측정값이 0도 미만 | 평 | 116 | 2862 | 2942 | -45.4 | 0 | 4817 | 670.557 | 423.926 | 11 | 2024-01-12 04:39:31.000 |
| DJSAD18 | Humidity | 습도센서 측정값이 80% 초과 | 평 | 113 | 1463 | 5855 | 5.8 | 80.8 | 6116 | 609.067 | 385.052 | 11 | 2024-01-12 04:39:30.000 |
| DJHNR03 | Temperature | 온도센서 상태 이상 | 호퍼 | 0 | 15500 | 0 | -999 | -999 | -119 | 0 | 0 | 31 | 2024-01-12 04:39:24.000 |
| DJSSD12 | Temperature | 온도센서 상태 이상 | 호퍼 | 0 | 11350 | 0 | -999 | -999 | -120 | 0 | 0 | 31 | 2024-01-12 04:39:24.000 |
| DJHNR12 | Humidity | 습도센서 측정값이 80% 초과 | 호퍼 | 0 | 10500 | 0 | 1.5 | 81.7 | -120 | 0 | 0 | 31 | 2024-01-12 04:39:22.000 |
| DJSAD05 | Humidity | 습도센서 측정값이 80% 초과 | 평 | 489 | 891 | 15308 | 3.1 | 80.2 | 7888 | 326.576 | 206.461 | 11 | 2024-01-12 03:39:39.000 |
| DJSAD02 | Humidity | 습도센서 측정값이 80% 초과 | 평 | 385 | 1132 | 4347 | 3.2 | 86.8 | 7647 | 316.582 | 200.143 | 11 | 2024-01-12 03:39:39.000 |
| DJSAD01 | Humidity | 습도센서 측정값이 80% 초과 | 평 | 444 | 1497 | 7245 | 2.6 | 87.1 | 7282 | 301.485 | 190.599 | 0 | 2024-01-12 03:39:39.000 |
| DJSAD08 | Humidity | 습도센서 측정값이 80% 초과 | 평 | 536 | 2326 | 4569 | 10.1 | 82.9 | 5253 | 747.58 | 472.62 | 0 | 2024-01-12 03:39:39.000 |
| DJSAD03 | Humidity | 습도센서 측정값이 80% 초과 | 평 | 441 | 1670 | 6207 | 4 | 84.5 | 7109 | 294.328 | 186.074 | 0 | 2024-01-12 03:39:39.000 |
| DJSSD05 | Temperature | 온도센서 측정값이 0도 미만 | 평 | 851 | 2548 | 4886 | -45.4 | 43.6 | 5531 | 769.806 | 486.671 | 0 | 2024-01-12 03:39:33.000 |
| DJSSD01 | Humidity | 습도센서 측정값이 80% 초과 | 평 | 788 | 2557 | 4652 | 6.4 | 83 | 5522 | 768.618 | 485.921 | 0 | 2024-01-12 03:39:33.000 |
| DJHNR01 | Humidity | 습도센서 측정값이 80% 초과 | 호퍼 | 471 | 4315 | 4882 | 7.5 | 99.9 | 11064 | 472.281 | 298.576 | 13 | 2024-01-12 03:39:33.000 |
| DJDJD04 | Humidity | 습도센서 측정값이 80% 초과 | 평 | 279 | 4207 | 4466 | 5 | 81.3 | 3472 | 420.68 | 265.954 | 11 | 2024-01-12 03:39:33.000 |
| DJSSD09 | Temperature | 온도센서 측정값이 0도 미만 | 평 | 121 | 2942 | 2914 | -45.4 | 0 | 4737 | 659.391 | 416.867 | 11 | 2024-01-12 03:39:33.000 |
| DJSAD12 | Humidity | 습도센서 측정값이 80% 초과 | 평 | 0 | 7700 | 0 | 5.2 | 84.3 | -120 | -17.075 | 0 | 31 | 2024-01-12 03:39:33.000 |
| DJSSD04 | Temperature | 온도센서 상태 이상 | 평 | 0 | 8200 | 0 | -999 | -999 | -120 | -16.702 | 0 | 31 | 2024-01-12 03:39:33.000 |
| DJSAD18 | Humidity | 습도센서 측정값이 80% 초과 | 평 | 120 | 1389 | 5824 | 5.8 | 80.8 | 6190 | 616.409 | 389.694 | 11 | 2024-01-12 03:39:30.000 |
[첫 페이지] [9985] [9986] [9987] [9988] 9989 [9990] [9991] [9992] [9993] [마지막 페이지]